createdAt,value
2019-05-15T00:01:23.833Z,18.70
2019-05-15T00:03:50.623Z,18.70
2019-05-15T00:06:19.066Z,18.70
2019-05-15T00:08:48.015Z,18.80
2019-05-15T00:11:14.874Z,18.80
2019-05-15T00:13:41.677Z,18.80
2019-05-15T00:16:08.736Z,18.70
2019-05-15T00:18:35.751Z,18.80
2019-05-15T00:21:02.539Z,18.70
2019-05-15T00:23:29.534Z,18.70
2019-05-15T00:25:58.494Z,18.70
2019-05-15T00:28:25.132Z,18.60
2019-05-15T00:30:52.193Z,18.60
2019-05-15T00:33:19.442Z,18.60
2019-05-15T00:35:48.440Z,18.50
2019-05-15T00:38:15.149Z,18.50
2019-05-15T00:40:41.951Z,19.20
2019-05-15T00:43:09.068Z,18.50
2019-05-15T00:45:38.514Z,18.30
2019-05-15T00:48:05.267Z,18.40
2019-05-15T00:50:32.154Z,18.40
2019-05-15T00:52:59.189Z,18.40
2019-05-15T00:55:25.995Z,18.30
2019-05-15T00:57:54.676Z,18.40
2019-05-15T01:00:43.400Z,18.30
2019-05-15T01:03:10.268Z,18.10
2019-05-15T01:05:38.763Z,18.10
2019-05-15T01:08:08.206Z,18.10
2019-05-15T01:10:38.310Z,18.10
2019-05-15T01:13:04.370Z,18.10
2019-05-15T01:15:31.181Z,18.20
2019-05-15T01:17:58.272Z,18.10
2019-05-15T01:20:28.522Z,18.10
2019-05-15T01:22:54.867Z,18.20
2019-05-15T01:25:21.659Z,18.30
2019-05-15T01:27:49.062Z,18.30
2019-05-15T01:30:17.988Z,18.40
2019-05-15T01:32:45.235Z,18.40
2019-05-15T01:35:12.337Z,18.30
2019-05-15T01:37:39.416Z,18.10
2019-05-15T01:40:08.786Z,18.20
2019-05-15T01:42:38.378Z,18.20
2019-05-15T01:45:08.380Z,18.40
2019-05-15T01:47:35.125Z,18.40
2019-05-15T01:50:04.038Z,18.50
2019-05-15T01:52:30.968Z,18.50
2019-05-15T01:54:58.341Z,18.50
2019-05-15T01:57:25.282Z,18.40
2019-05-15T01:59:57.261Z,18.30
2019-05-15T02:02:20.788Z,18.20
2019-05-15T02:04:48.624Z,18.10
2019-05-15T02:07:16.098Z,18.10
2019-05-15T02:09:43.494Z,17.90
2019-05-15T02:12:10.300Z,18.00
2019-05-15T02:14:39.161Z,18.10
2019-05-15T02:17:08.359Z,18.00
2019-05-15T02:19:34.561Z,18.00
2019-05-15T02:22:01.387Z,18.00
2019-05-15T02:24:28.523Z,18.00
2019-05-15T02:26:55.931Z,18.00
2019-05-15T02:29:25.134Z,18.10
2019-05-15T02:31:51.425Z,18.10
2019-05-15T02:34:19.472Z,18.10
2019-05-15T02:36:49.291Z,18.10
2019-05-15T02:39:18.725Z,17.90
2019-05-15T02:41:44.431Z,18.00
2019-05-15T02:44:11.247Z,17.90
2019-05-15T02:46:39.211Z,18.00
2019-05-15T02:49:08.855Z,18.00
2019-05-15T02:51:35.052Z,18.00
2019-05-15T02:54:01.845Z,18.10
2019-05-15T02:56:29.261Z,18.10
2019-05-15T02:58:59.693Z,18.20
2019-05-15T03:01:25.292Z,18.30
2019-05-15T03:03:52.084Z,18.30
2019-05-15T03:06:19.291Z,18.40
2019-05-15T03:08:49.518Z,18.50
2019-05-15T03:11:19.019Z,18.40
2019-05-15T03:13:45.945Z,18.40
2019-05-15T03:16:13.244Z,18.40
2019-05-15T03:18:40.256Z,18.30
2019-05-15T03:21:09.698Z,18.10
2019-05-15T03:23:35.735Z,17.90
2019-05-15T03:26:04.372Z,17.80
2019-05-15T03:28:31.390Z,17.70
2019-05-15T03:33:34.879Z,17.70
2019-05-15T03:36:01.692Z,17.80
2019-05-15T03:38:24.533Z,17.80
2019-05-15T03:40:51.328Z,17.50
2019-05-15T03:43:18.673Z,17.40
2019-05-15T03:45:49.058Z,17.50
2019-05-15T03:48:14.931Z,17.50
2019-05-15T03:50:41.836Z,17.20
2019-05-15T03:53:10.089Z,17.30
2019-05-15T03:55:40.467Z,17.40
2019-05-15T03:58:09.564Z,17.50
2019-05-15T04:00:34.956Z,17.50
2019-05-15T04:03:01.871Z,17.50
2019-05-15T04:05:29.338Z,17.40
2019-05-15T04:07:59.910Z,17.50
2019-05-15T04:10:28.606Z,17.50
2019-05-15T04:12:59.892Z,17.60
2019-05-15T04:15:25.704Z,17.50
2019-05-15T04:17:52.742Z,17.60
2019-05-15T04:20:20.202Z,17.40
2019-05-15T04:22:49.201Z,16.90
2019-05-15T04:25:19.030Z,16.70
2019-05-15T04:27:49.335Z,16.70
2019-05-15T04:30:19.026Z,16.80
2019-05-15T04:32:48.562Z,16.70
2019-05-15T04:35:14.954Z,16.80
2019-05-15T04:37:41.751Z,16.80
2019-05-15T04:40:09.757Z,16.90
2019-05-15T04:42:39.948Z,16.90
2019-05-15T04:45:10.045Z,16.80
2019-05-15T04:47:39.631Z,16.90
2019-05-15T04:50:08.997Z,16.90
2019-05-15T04:52:42.583Z,16.80
2019-05-15T04:55:09.697Z,16.60
2019-05-15T04:57:34.736Z,16.60
2019-05-15T05:00:03.584Z,16.50
2019-05-15T05:02:32.310Z,16.40
2019-05-15T05:04:59.388Z,16.50
2019-05-15T05:07:29.360Z,16.50
2019-05-15T05:09:55.734Z,16.60
2019-05-15T05:12:22.541Z,16.50
2019-05-15T05:14:49.325Z,16.30
2019-05-15T05:17:19.040Z,16.20
2019-05-15T05:19:47.738Z,16.20
2019-05-15T05:22:14.231Z,16.30
2019-05-15T05:24:41.554Z,16.30
2019-05-15T05:27:08.863Z,16.30
2019-05-15T05:29:35.664Z,16.30
2019-05-15T05:32:02.457Z,16.40
2019-05-15T05:34:30.151Z,16.40
2019-05-15T05:36:58.895Z,16.60
2019-05-15T05:39:25.887Z,16.60
2019-05-15T05:41:52.709Z,16.70
2019-05-15T05:44:19.705Z,16.80
2019-05-15T05:46:48.761Z,17.00
2019-05-15T05:49:15.806Z,17.10
2019-05-15T05:51:42.610Z,17.30
2019-05-15T05:54:09.399Z,17.50
2019-05-15T05:56:37.810Z,17.60
2019-05-15T05:59:04.887Z,17.70
2019-05-15T06:01:31.715Z,17.80
2019-05-15T06:03:58.510Z,17.90
2019-05-15T06:06:25.294Z,18.00
2019-05-15T06:08:52.085Z,18.10
2019-05-15T06:11:18.913Z,18.20
2019-05-15T06:13:45.866Z,18.20
2019-05-15T06:16:12.675Z,18.20
2019-05-15T06:18:39.701Z,18.40
2019-05-15T06:21:08.826Z,18.40
2019-05-15T06:23:36.213Z,18.50
2019-05-15T06:26:03.609Z,18.50
2019-05-15T06:28:30.499Z,18.60
2019-05-15T06:31:00.624Z,18.70
2019-05-15T06:33:27.783Z,19.60
2019-05-15T06:35:54.676Z,18.90
2019-05-15T06:38:21.709Z,19.00
2019-05-15T06:40:49.812Z,19.00
2019-05-15T06:43:19.190Z,19.10
2019-05-15T06:45:48.468Z,19.20
2019-05-15T06:48:14.762Z,19.30
2019-05-15T06:50:41.577Z,19.30
2019-05-15T06:53:10.810Z,19.40
2019-05-15T06:55:38.797Z,19.50
2019-05-15T06:58:09.043Z,19.60
2019-05-15T07:00:34.848Z,19.70
2019-05-15T07:03:16.486Z,19.80
2019-05-15T07:05:30.942Z,19.90
2019-05-15T07:07:58.472Z,19.90
2019-05-15T07:10:28.649Z,20.00
2019-05-15T07:12:54.617Z,20.10
2019-05-15T07:15:22.022Z,20.20
2019-05-15T07:17:48.873Z,20.20
2019-05-15T07:20:18.539Z,20.30
2019-05-15T07:22:45.531Z,20.40
2019-05-15T07:25:13.882Z,20.50
2019-05-15T07:27:40.686Z,20.50
2019-05-15T07:30:11.870Z,20.60
2019-05-15T07:32:39.565Z,20.70
2019-05-15T07:35:09.400Z,20.80
2019-05-15T07:37:38.470Z,20.90
2019-05-15T07:40:08.719Z,21.00
2019-05-15T07:42:38.477Z,21.10
2019-05-15T07:45:10.220Z,21.30
2019-05-15T07:47:38.593Z,21.40
2019-05-15T07:50:09.546Z,21.50
2019-05-15T07:52:39.487Z,21.60
2019-05-15T07:55:08.928Z,21.60
2019-05-15T07:57:39.421Z,21.70
2019-05-15T08:00:12.740Z,21.80
2019-05-15T08:02:39.529Z,21.80
2019-05-15T08:05:08.493Z,21.90
2019-05-15T08:07:35.678Z,22.00
2019-05-15T08:10:04.966Z,22.00
2019-05-15T08:12:32.175Z,22.10
2019-05-15T08:14:59.378Z,22.20
2019-05-15T08:17:28.732Z,22.40
2019-05-15T08:19:54.908Z,22.70
2019-05-15T08:22:23.253Z,22.60
2019-05-15T08:24:50.044Z,22.70
2019-05-15T08:27:19.041Z,22.70
2019-05-15T08:29:45.659Z,22.70
2019-05-15T08:32:12.793Z,22.80
2019-05-15T08:34:39.551Z,22.80
2019-05-15T08:37:07.928Z,22.90
2019-05-15T08:39:34.961Z,23.10
2019-05-15T08:42:02.088Z,23.20
2019-05-15T08:44:29.478Z,23.10
2019-05-15T08:46:58.805Z,23.10
2019-05-15T08:49:25.266Z,23.00
2019-05-15T08:51:52.171Z,23.10
2019-05-15T08:54:18.964Z,23.10
2019-05-15T08:56:48.196Z,23.20
2019-05-15T08:59:14.637Z,23.40
2019-05-15T09:01:41.449Z,23.40
2019-05-15T09:04:08.998Z,23.40
2019-05-15T09:06:41.032Z,23.40
2019-05-15T09:09:09.350Z,23.40
2019-05-15T09:11:35.114Z,23.40
2019-05-15T09:14:02.583Z,23.50
2019-05-15T09:16:29.426Z,23.60
2019-05-15T09:18:56.233Z,23.60
2019-05-15T09:21:23.399Z,23.60
2019-05-15T09:23:50.372Z,23.60
2019-05-15T09:26:19.518Z,23.70
2019-05-15T09:28:45.991Z,23.70
2019-05-15T09:31:12.827Z,23.70
2019-05-15T09:33:39.643Z,23.70
2019-05-15T09:36:08.813Z,23.70
2019-05-15T09:38:35.244Z,23.80
2019-05-15T09:41:02.163Z,23.80
2019-05-15T09:43:28.983Z,23.80
2019-05-15T09:45:58.091Z,23.80
2019-05-15T09:48:24.548Z,23.80
2019-05-15T09:50:51.494Z,23.90
2019-05-15T09:53:19.142Z,23.80
2019-05-15T09:55:48.991Z,23.90
2019-05-15T09:58:15.648Z,23.90
2019-05-15T10:00:42.564Z,23.90
2019-05-15T10:03:09.687Z,23.90
2019-05-15T10:05:38.744Z,23.90
2019-05-15T10:08:05.481Z,24.00
2019-05-15T10:10:32.328Z,24.00
2019-05-15T10:12:59.573Z,24.00
2019-05-15T10:15:26.630Z,24.10
2019-05-15T10:17:53.519Z,24.10
2019-05-15T10:20:20.480Z,24.10
2019-05-15T10:22:48.406Z,24.20
2019-05-15T10:25:15.858Z,24.20
2019-05-15T10:27:42.951Z,24.30
2019-05-15T10:30:10.743Z,24.40
2019-05-15T10:32:39.524Z,24.50
2019-05-15T10:35:23.717Z,24.50
2019-05-15T10:37:39.023Z,24.60
2019-05-15T10:40:09.124Z,24.60
2019-05-15T10:42:39.329Z,24.70
2019-05-15T10:45:09.277Z,24.70
2019-05-15T10:47:38.793Z,24.70
2019-05-15T10:50:07.972Z,24.80
2019-05-15T10:52:34.966Z,24.80
2019-05-15T10:55:02.172Z,24.90
2019-05-15T10:57:29.002Z,25.00
2019-05-15T10:59:55.822Z,25.10
2019-05-15T11:02:22.632Z,25.10
2019-05-15T11:04:49.458Z,25.20
2019-05-15T11:07:19.225Z,25.20
2019-05-15T11:09:45.159Z,25.30
2019-05-15T11:12:11.993Z,25.40
2019-05-15T11:14:38.950Z,25.40
2019-05-15T11:17:05.835Z,25.50
2019-05-15T11:19:35.943Z,25.60
2019-05-15T11:22:01.729Z,25.70
2019-05-15T11:24:32.225Z,25.80
2019-05-15T11:26:59.452Z,25.80
2019-05-15T11:29:26.398Z,25.90
2019-05-15T11:31:53.226Z,26.00
2019-05-15T11:34:20.044Z,26.00
2019-05-15T11:36:48.353Z,26.00
2019-05-15T11:39:18.066Z,26.10
2019-05-15T11:41:44.419Z,26.20
2019-05-15T11:44:11.258Z,26.40
2019-05-15T11:46:39.169Z,26.40
2019-05-15T11:49:09.186Z,26.50
2019-05-15T11:51:35.106Z,26.60
2019-05-15T11:54:02.006Z,26.70
2019-05-15T11:56:29.654Z,26.80
2019-05-15T11:58:57.116Z,26.90
2019-05-15T12:01:23.935Z,27.00
2019-05-15T12:03:50.734Z,27.00
2019-05-15T12:06:21.922Z,27.10
2019-05-15T12:08:46.221Z,27.20
2019-05-15T12:11:30.831Z,27.30
2019-05-15T12:13:41.932Z,27.50
2019-05-15T12:16:08.776Z,27.60
2019-05-15T12:18:35.923Z,27.60
2019-05-15T12:21:03.208Z,27.80
2019-05-15T12:23:30.135Z,27.90
2019-05-15T12:25:59.764Z,28.00
2019-05-15T12:28:29.278Z,28.10
2019-05-15T12:30:54.732Z,28.30
2019-05-15T12:33:21.814Z,28.40
2019-05-15T12:35:50.891Z,28.50
2019-05-15T12:38:18.544Z,28.50
2019-05-15T13:00:38.152Z,29.20
2019-05-15T13:03:04.860Z,29.40
2019-05-15T13:05:32.596Z,29.40
2019-05-15T13:07:59.849Z,29.50
2019-05-15T13:10:28.770Z,29.50
2019-05-15T13:13:01.331Z,29.50
2019-05-15T13:15:24.339Z,29.50
2019-05-15T13:17:53.425Z,29.50
2019-05-15T13:20:20.036Z,29.50
2019-05-15T13:25:15.041Z,29.50
2019-05-15T13:27:41.899Z,29.50
2019-05-15T13:30:09.999Z,29.50
2019-05-15T13:32:40.699Z,29.50
2019-05-15T13:35:09.496Z,29.60
2019-05-15T13:37:35.113Z,29.60
2019-05-15T13:40:01.949Z,29.70
2019-05-15T13:42:28.944Z,29.70
2019-05-15T13:44:58.491Z,29.70
2019-05-15T13:47:24.487Z,29.60
2019-05-15T13:49:51.287Z,29.60
2019-05-15T13:52:18.784Z,29.50
2019-05-15T13:54:48.327Z,29.50
2019-05-15T13:57:17.943Z,29.50
2019-05-15T13:59:44.332Z,29.40
2019-05-15T14:02:11.728Z,29.40
2019-05-15T14:04:38.842Z,29.50
2019-05-15T14:07:08.391Z,29.50
2019-05-15T14:09:34.886Z,29.60
2019-05-15T14:12:01.658Z,29.70
2019-05-15T14:14:28.738Z,29.70
2019-05-15T14:16:55.817Z,29.60
2019-05-15T14:19:22.814Z,29.60
2019-05-15T14:21:49.636Z,29.50
2019-05-15T14:24:18.398Z,29.50
2019-05-15T14:26:45.379Z,29.40
2019-05-15T14:29:12.191Z,29.50
2019-05-15T14:31:39.727Z,29.60
2019-05-15T14:34:08.657Z,29.60
2019-05-15T14:36:35.645Z,29.70
2019-05-15T14:39:04.334Z,29.80
2019-05-15T14:41:31.153Z,29.90
2019-05-15T14:44:12.991Z,30.00
2019-05-15T14:46:26.690Z,30.10
2019-05-15T14:48:53.701Z,30.10
2019-05-15T14:51:20.635Z,30.10
2019-05-15T14:53:49.035Z,30.10
2019-05-15T14:56:18.405Z,30.10
2019-05-15T14:58:45.131Z,30.10
2019-05-15T15:01:13.358Z,29.70
2019-05-15T15:03:40.933Z,29.90
2019-05-15T15:06:08.693Z,29.80
2019-05-15T15:08:35.857Z,29.80
2019-05-15T15:11:02.661Z,29.80
2019-05-15T15:13:29.784Z,29.90
2019-05-15T15:15:58.903Z,30.00
2019-05-15T15:18:27.931Z,29.80
2019-05-15T15:20:54.349Z,30.00
2019-05-15T15:23:21.189Z,29.90
2019-05-15T15:25:48.471Z,30.00
2019-05-15T15:28:15.637Z,30.10
2019-05-15T15:30:43.047Z,30.30
2019-05-15T15:33:09.856Z,30.30
2019-05-15T15:35:38.312Z,30.40
2019-05-15T15:38:05.739Z,30.50
2019-05-15T15:40:32.576Z,30.60
2019-05-15T15:42:59.384Z,30.60
2019-05-15T15:45:28.278Z,30.50
2019-05-15T15:47:54.988Z,30.60
2019-05-15T15:50:21.993Z,30.50
2019-05-15T15:52:49.126Z,30.60
2019-05-15T15:55:18.442Z,30.60
2019-05-15T15:57:45.386Z,30.50
2019-05-15T16:00:14.393Z,30.50
2019-05-15T16:02:41.422Z,30.50
2019-05-15T16:05:09.818Z,30.50
2019-05-15T16:07:38.052Z,30.60
2019-05-15T16:10:08.129Z,30.70
2019-05-15T16:12:34.766Z,30.90
2019-05-15T16:15:01.666Z,31.10
2019-05-15T16:17:28.694Z,31.30
2019-05-15T16:19:55.669Z,31.70
2019-05-15T16:22:22.524Z,32.10
2019-05-15T16:24:49.644Z,32.20
2019-05-15T16:27:18.193Z,32.40
2019-05-15T16:29:45.195Z,32.60
2019-05-15T16:32:12.032Z,32.80
2019-05-15T16:34:39.414Z,32.90
2019-05-15T16:37:08.826Z,32.90
2019-05-15T16:39:35.486Z,32.90
2019-05-15T16:42:03.470Z,32.70
2019-05-15T16:44:30.701Z,32.90
2019-05-15T16:46:58.871Z,32.90
2019-05-15T16:49:28.492Z,32.90
2019-05-15T16:51:58.153Z,33.00
2019-05-15T16:54:24.339Z,33.00
2019-05-15T16:56:51.143Z,32.90
2019-05-15T16:59:18.457Z,32.60
2019-05-15T17:01:45.502Z,32.50
2019-05-15T17:04:12.299Z,32.30
2019-05-15T17:06:39.138Z,32.20
2019-05-15T17:09:20.749Z,32.20
2019-05-15T17:11:38.424Z,32.40
2019-05-15T17:14:05.541Z,32.50
2019-05-15T17:16:32.350Z,32.50
2019-05-15T17:18:59.243Z,32.50
2019-05-15T17:21:28.489Z,32.40
2019-05-15T17:23:55.115Z,32.40
2019-05-15T17:26:21.906Z,32.40
2019-05-15T17:28:48.858Z,32.40
2019-05-15T17:31:17.961Z,32.50
2019-05-15T17:33:44.734Z,32.50
2019-05-15T17:36:11.641Z,32.30
2019-05-15T17:38:38.483Z,32.20
2019-05-15T17:41:08.309Z,32.00
2019-05-15T17:43:37.809Z,31.60
2019-05-15T17:46:04.234Z,31.30
2019-05-15T17:48:31.127Z,31.20
2019-05-15T17:50:59.350Z,31.00
2019-05-15T17:53:28.676Z,30.80
2019-05-15T17:55:55.213Z,30.50
2019-05-15T17:58:22.606Z,30.40
2019-05-15T18:00:49.481Z,30.30
2019-05-15T18:03:18.935Z,30.20
2019-05-15T18:05:45.067Z,30.20
2019-05-15T18:08:12.074Z,30.30
2019-05-15T18:10:38.870Z,30.20
2019-05-15T18:13:06.007Z,30.10
2019-05-15T18:15:34.113Z,30.10
2019-05-15T18:18:01.180Z,30.00
2019-05-15T18:20:29.566Z,30.00
2019-05-15T18:22:59.132Z,29.80
2019-05-15T18:25:25.611Z,29.70
2019-05-15T18:27:52.991Z,29.50
2019-05-15T18:30:19.802Z,29.50
2019-05-15T18:32:48.959Z,29.40
2019-05-15T18:35:18.621Z,29.40
2019-05-15T18:37:45.000Z,29.20
2019-05-15T18:40:12.443Z,28.90
2019-05-15T18:42:39.677Z,28.60
2019-05-15T18:45:07.979Z,28.60
2019-05-15T18:47:34.787Z,28.40
2019-05-15T18:50:08.638Z,28.40
2019-05-15T18:52:32.297Z,27.90
2019-05-15T18:54:59.081Z,27.90
2019-05-15T18:57:26.181Z,27.80
2019-05-15T18:59:52.987Z,27.70
2019-05-15T19:02:19.784Z,27.60
2019-05-15T19:04:48.878Z,27.40
2019-05-15T19:07:15.478Z,27.20
2019-05-15T19:09:42.274Z,27.10
2019-05-15T19:12:10.010Z,27.10
2019-05-15T19:14:39.563Z,27.00
2019-05-15T19:17:08.114Z,27.00
2019-05-15T19:19:35.068Z,26.80
2019-05-15T19:22:01.906Z,26.70
2019-05-15T19:24:28.689Z,26.50
2019-05-15T19:26:55.525Z,26.40
2019-05-15T19:29:22.333Z,26.30
2019-05-15T19:31:49.406Z,26.20
2019-05-15T19:34:18.556Z,26.10
2019-05-15T19:36:45.014Z,26.00
2019-05-15T19:39:11.823Z,25.80
2019-05-15T19:41:38.989Z,25.70
2019-05-15T19:44:06.121Z,25.50
2019-05-15T19:46:32.924Z,25.40
2019-05-15T19:48:59.739Z,25.20
2019-05-15T19:51:28.826Z,25.10
2019-05-15T19:53:58.462Z,25.00
2019-05-15T19:56:24.514Z,25.00
2019-05-15T19:58:51.427Z,24.90
2019-05-15T20:01:18.927Z,24.80
2019-05-15T20:03:52.255Z,24.70
2019-05-15T20:06:15.186Z,24.70
2019-05-15T20:08:42.155Z,24.40
2019-05-15T20:11:10.584Z,24.20
2019-05-15T20:13:38.327Z,24.10
2019-05-15T20:16:05.590Z,24.10
2019-05-15T20:18:32.857Z,24.10
2019-05-15T20:20:59.659Z,24.00
2019-05-15T20:23:28.743Z,24.00
2019-05-15T20:25:57.563Z,23.90
2019-05-15T20:28:24.146Z,23.80
2019-05-15T20:30:51.355Z,23.80
2019-05-15T20:33:18.511Z,23.80
2019-05-15T20:35:47.837Z,23.80
2019-05-15T20:38:13.997Z,23.80
2019-05-15T20:40:40.819Z,23.70
2019-05-15T20:43:08.345Z,23.70
2019-05-15T20:45:35.424Z,23.60
2019-05-15T20:48:02.267Z,23.50
2019-05-15T20:50:29.042Z,23.50
2019-05-15T20:52:58.709Z,23.50
2019-05-15T20:55:25.306Z,23.50
2019-05-15T20:57:52.109Z,23.60
2019-05-15T21:00:20.617Z,23.70
2019-05-15T21:02:48.611Z,23.70
2019-05-15T21:05:15.619Z,23.70
2019-05-15T21:07:43.428Z,23.70
2019-05-15T21:10:11.317Z,23.70
2019-05-15T21:12:41.096Z,23.70
2019-05-15T21:15:08.766Z,23.70
2019-05-15T21:17:35.788Z,23.60
2019-05-15T21:20:04.166Z,23.40
2019-05-15T21:22:31.157Z,23.30
2019-05-15T21:24:58.459Z,23.30
2019-05-15T21:27:25.316Z,23.40
2019-05-15T21:29:52.328Z,23.40
2019-05-15T21:32:19.790Z,23.40
2019-05-15T21:34:49.249Z,23.30
2019-05-15T21:37:15.469Z,23.30
2019-05-15T21:39:42.466Z,23.20
2019-05-15T21:42:09.299Z,23.10
2019-05-15T21:44:38.113Z,23.00
2019-05-15T21:47:04.818Z,22.90
2019-05-15T21:49:31.612Z,22.90
2019-05-15T21:51:58.525Z,22.80
2019-05-15T21:54:28.030Z,22.70
2019-05-15T21:57:06.650Z,22.70
2019-05-15T21:59:23.253Z,22.60
2019-05-15T22:01:50.119Z,22.50
2019-05-15T22:04:17.355Z,22.50
2019-05-15T22:06:44.153Z,22.40
2019-05-15T22:09:12.822Z,22.30
2019-05-15T22:11:39.866Z,22.30
2019-05-15T22:14:08.020Z,22.20
2019-05-15T22:16:35.242Z,22.20
2019-05-15T22:19:02.056Z,22.20
2019-05-15T22:21:28.962Z,22.20
2019-05-15T22:23:59.837Z,22.20
2019-05-15T22:26:25.125Z,22.20
2019-05-15T22:28:52.012Z,22.30
2019-05-15T22:31:21.711Z,22.20
2019-05-15T22:33:48.699Z,22.10
2019-05-15T22:36:15.489Z,22.00
2019-05-15T22:38:42.366Z,22.00
2019-05-15T22:41:10.517Z,21.90
2019-05-15T22:43:39.239Z,21.50
2019-05-15T22:46:07.703Z,21.50
2019-05-15T22:48:34.973Z,21.40
2019-05-15T22:51:02.105Z,21.50
2019-05-15T22:53:29.315Z,21.50
2019-05-15T22:55:56.099Z,21.60
2019-05-15T22:58:22.946Z,21.70
2019-05-15T23:00:50.117Z,21.80
2019-05-15T23:03:18.968Z,21.80
2019-05-15T23:05:45.665Z,21.80
2019-05-15T23:08:12.528Z,21.90
2019-05-15T23:10:39.316Z,21.80
2019-05-15T23:13:06.107Z,21.80
2019-05-15T23:15:33.415Z,21.80
2019-05-15T23:18:00.220Z,21.60
2019-05-15T23:20:28.510Z,21.50
2019-05-15T23:22:58.180Z,21.50
2019-05-15T23:25:24.656Z,21.40
2019-05-15T23:27:51.445Z,21.30
2019-05-15T23:30:18.813Z,21.30
2019-05-15T23:32:45.611Z,21.20
2019-05-15T23:35:12.639Z,20.70
2019-05-15T23:37:39.503Z,21.10
2019-05-15T23:40:08.882Z,21.10
2019-05-15T23:42:38.648Z,21.10
2019-05-15T23:45:05.960Z,21.00
2019-05-15T23:47:32.957Z,20.90
2019-05-15T23:49:59.910Z,20.80
2019-05-15T23:52:26.753Z,20.70
2019-05-15T23:54:53.897Z,20.60
2019-05-15T23:57:20.694Z,20.50
2019-05-15T23:59:48.154Z,20.40
